BAW215 EGAC-EGLL
Flight info
| Callsign | BAW215 |
|---|---|
| Flight time | N/A |
| Altitude | 33000 |
| Route | DUFFY L10 RINGA Q39 BABGU DCT ETIGA DCT INKOB Q39 NOMSU UQ4 WAL UY53 NUGRA |
| Aircraft | A320/M-SDE3FGHIRWY/LB1 |
Departure
| Time | 2026-05-04 03:49 |
|---|---|
| Airport | George Best Belfast City Airport (EGAC) |
Arrival
| Time | N/A |
|---|---|
| Airport | London Heathrow Airport (EGLL) |
| Time | Latitude | Longitude | Altitude | Speed | Heading |
|---|---|---|---|---|---|
| 2026-05-04 03:29 | 54.61503 | -5.87148 | 24 ft | 0 kts | 155° |
| 2026-05-04 03:41 | 54.61505 | -5.87149 | 22 ft | 1 kts | 155° |
| 2026-05-04 03:41 | 54.61520 | -5.87162 | 24 ft | 3 kts | 146° |
| 2026-05-04 03:42 | 54.61535 | -5.87183 | 22 ft | 3 kts | 120° |
| 2026-05-04 03:42 | 54.61541 | -5.87208 | 22 ft | 2 kts | 56° |
| 2026-05-04 03:42 | 54.61537 | -5.87216 | 22 ft | 0 kts | 35° |
| 2026-05-04 03:44 | 54.61538 | -5.87216 | 22 ft | 1 kts | 35° |
| 2026-05-04 03:45 | 54.61549 | -5.87202 | 25 ft | 3 kts | 35° |
| 2026-05-04 03:45 | 54.61576 | -5.87169 | 21 ft | 6 kts | 35° |
| 2026-05-04 03:45 | 54.61620 | -5.87116 | 21 ft | 9 kts | 34° |
| 2026-05-04 03:45 | 54.61682 | -5.87043 | 21 ft | 12 kts | 34° |
| 2026-05-04 03:46 | 54.61765 | -5.87011 | 21 ft | 14 kts | 320° |
| 2026-05-04 03:46 | 54.61833 | -5.87171 | 18 ft | 15 kts | 314° |
| 2026-05-04 03:46 | 54.61919 | -5.87122 | 18 ft | 16 kts | 34° |
| 2026-05-04 03:46 | 54.62022 | -5.87001 | 17 ft | 19 kts | 34° |
| 2026-05-04 03:47 | 54.62136 | -5.86865 | 16 ft | 22 kts | 34° |
| 2026-05-04 03:47 | 54.62258 | -5.86717 | 21 ft | 22 kts | 34° |
| 2026-05-04 03:47 | 54.62384 | -5.86562 | 22 ft | 21 kts | 32° |
| 2026-05-04 03:47 | 54.62476 | -5.86532 | 21 ft | 13 kts | 33° |
| 2026-05-04 03:48 | 54.62466 | -5.86467 | 19 ft | 5 kts | 208° |
| 2026-05-04 03:48 | 54.62417 | -5.86526 | 21 ft | 25 kts | 215° |
| 2026-05-04 03:48 | 54.62030 | -5.86989 | 17 ft | 107 kts | 215° |
| 2026-05-04 03:48 | 54.61248 | -5.87930 | 76 ft | 158 kts | 216° |
| 2026-05-04 03:49 | 54.60368 | -5.89000 | 783 ft | 156 kts | 217° |
| 2026-05-04 03:49 | 54.59470 | -5.90112 | 1410 ft | 163 kts | 218° |
| 2026-05-04 03:49 | 54.58486 | -5.91268 | 1637 ft | 185 kts | 209° |
| 2026-05-04 03:49 | 54.57152 | -5.91639 | 1859 ft | 210 kts | 167° |
| 2026-05-04 03:50 | 54.55776 | -5.90537 | 2135 ft | 231 kts | 148° |
| 2026-05-04 03:50 | 54.54322 | -5.89058 | 2506 ft | 255 kts | 148° |
| 2026-05-04 03:50 | 54.52774 | -5.87453 | 3275 ft | 263 kts | 147° |
| 2026-05-04 03:50 | 54.51363 | -5.85501 | 4152 ft | 266 kts | 133° |
| 2026-05-04 03:51 | 54.50224 | -5.82976 | 5045 ft | 269 kts | 123° |
| 2026-05-04 03:51 | 54.49171 | -5.80300 | 5917 ft | 273 kts | 123° |
| 2026-05-04 03:51 | 54.48087 | -5.77572 | 6763 ft | 277 kts | 124° |
| 2026-05-04 03:51 | 54.46989 | -5.74825 | 7566 ft | 281 kts | 124° |
| 2026-05-04 03:52 | 54.45870 | -5.72037 | 8375 ft | 285 kts | 124° |
| 2026-05-04 03:52 | 54.44735 | -5.69212 | 9177 ft | 289 kts | 124° |
| 2026-05-04 03:52 | 54.43581 | -5.66353 | 9965 ft | 294 kts | 123° |
| 2026-05-04 03:52 | 54.42402 | -5.63438 | 10683 ft | 297 kts | 124° |
| 2026-05-04 03:53 | 54.41229 | -5.60536 | 11226 ft | 309 kts | 123° |
| 2026-05-04 03:53 | 54.39964 | -5.57395 | 11409 ft | 332 kts | 123° |
| 2026-05-04 03:53 | 54.38604 | -5.54023 | 11541 ft | 354 kts | 124° |
| 2026-05-04 03:53 | 54.37177 | -5.50499 | 11971 ft | 364 kts | 124° |
| 2026-05-04 03:54 | 54.35727 | -5.46923 | 12601 ft | 368 kts | 124° |
| 2026-05-04 03:54 | 54.34255 | -5.43293 | 13283 ft | 371 kts | 124° |
| 2026-05-04 03:54 | 54.32773 | -5.39648 | 13944 ft | 375 kts | 124° |
| 2026-05-04 03:54 | 54.31270 | -5.35964 | 14536 ft | 378 kts | 124° |
| 2026-05-04 03:55 | 54.29774 | -5.32307 | 15088 ft | 381 kts | 124° |
| 2026-05-04 03:55 | 54.28250 | -5.28581 | 15680 ft | 384 kts | 124° |
| 2026-05-04 03:55 | 54.26663 | -5.24865 | 16240 ft | 388 kts | 126° |
| 2026-05-04 03:55 | 54.24983 | -5.21234 | 16815 ft | 391 kts | 128° |
| 2026-05-04 03:56 | 54.23235 | -5.17632 | 17408 ft | 395 kts | 129° |
| 2026-05-04 03:56 | 54.21456 | -5.14039 | 18001 ft | 398 kts | 129° |
| 2026-05-04 03:56 | 54.19653 | -5.10409 | 18555 ft | 402 kts | 129° |
| 2026-05-04 03:56 | 54.17849 | -5.06747 | 19098 ft | 405 kts | 128° |
| 2026-05-04 03:57 | 54.16037 | -5.03029 | 19659 ft | 408 kts | 128° |
| 2026-05-04 03:57 | 54.14249 | -4.99333 | 20203 ft | 411 kts | 128° |
| 2026-05-04 03:57 | 54.12431 | -4.95565 | 20736 ft | 413 kts | 128° |
| 2026-05-04 03:57 | 54.10596 | -4.91770 | 21245 ft | 416 kts | 128° |
| 2026-05-04 03:58 | 54.06891 | -4.84149 | 22212 ft | 420 kts | 128° |
| 2026-05-04 03:58 | 54.05017 | -4.80308 | 22682 ft | 423 kts | 127° |
| 2026-05-04 03:58 | 54.03159 | -4.76425 | 23134 ft | 425 kts | 126° |
| 2026-05-04 03:59 | 54.01371 | -4.72496 | 23567 ft | 427 kts | 124° |
| 2026-05-04 03:59 | 53.99584 | -4.68452 | 23941 ft | 429 kts | 124° |
| 2026-05-04 03:59 | 53.97801 | -4.64366 | 24299 ft | 431 kts | 123° |
| 2026-05-04 03:59 | 53.96011 | -4.60272 | 24647 ft | 433 kts | 123° |
| 2026-05-04 04:00 | 53.94203 | -4.56162 | 24994 ft | 435 kts | 124° |
| 2026-05-04 04:00 | 53.92378 | -4.52052 | 25326 ft | 437 kts | 124° |
| 2026-05-04 04:00 | 53.90533 | -4.47939 | 25668 ft | 440 kts | 124° |
| 2026-05-04 04:00 | 53.88672 | -4.43818 | 26011 ft | 442 kts | 124° |
| 2026-05-04 04:01 | 53.86797 | -4.39663 | 26346 ft | 444 kts | 123° |
| 2026-05-04 04:01 | 53.84997 | -4.35502 | 26682 ft | 445 kts | 122° |
| 2026-05-04 04:01 | 53.83219 | -4.31195 | 27024 ft | 447 kts | 121° |
| 2026-05-04 04:01 | 53.81469 | -4.26838 | 27347 ft | 448 kts | 120° |
| 2026-05-04 04:02 | 53.79726 | -4.22456 | 27725 ft | 449 kts | 120° |
| 2026-05-04 04:02 | 53.77983 | -4.18097 | 28212 ft | 447 kts | 120° |
| 2026-05-04 04:02 | 53.76224 | -4.13751 | 28695 ft | 446 kts | 120° |
| 2026-05-04 04:02 | 53.74464 | -4.09454 | 29167 ft | 445 kts | 120° |
| 2026-05-04 04:03 | 53.72714 | -4.05224 | 29641 ft | 444 kts | 120° |
| 2026-05-04 04:03 | 53.70940 | -4.00961 | 30120 ft | 443 kts | 120° |
| 2026-05-04 04:03 | 53.69170 | -3.96714 | 30532 ft | 442 kts | 120° |
| 2026-05-04 04:03 | 53.67400 | -3.92468 | 30931 ft | 441 kts | 120° |
| 2026-05-04 04:04 | 53.65640 | -3.88232 | 31344 ft | 441 kts | 120° |
| 2026-05-04 04:04 | 53.63886 | -3.84014 | 31761 ft | 440 kts | 120° |
| 2026-05-04 04:04 | 53.62130 | -3.79797 | 32171 ft | 439 kts | 121° |
| 2026-05-04 04:04 | 53.60375 | -3.75593 | 32582 ft | 439 kts | 121° |
| 2026-05-04 04:05 | 53.58620 | -3.71399 | 32945 ft | 439 kts | 121° |
| 2026-05-04 04:05 | 53.56880 | -3.67250 | 33038 ft | 443 kts | 121° |
| 2026-05-04 04:05 | 53.53277 | -3.58678 | 33032 ft | 451 kts | 122° |
| 2026-05-04 04:06 | 53.49641 | -3.50072 | 33030 ft | 452 kts | 122° |
| 2026-05-04 04:06 | 53.46295 | -3.41268 | 33020 ft | 448 kts | 112° |
| 2026-05-04 04:07 | 53.43846 | -3.31678 | 33026 ft | 448 kts | 110° |
| 2026-05-04 04:07 | 53.41408 | -3.22063 | 33028 ft | 448 kts | 111° |
| 2026-05-04 04:08 | 53.38746 | -3.12615 | 33026 ft | 451 kts | 120° |
| 2026-05-04 04:08 | 53.35047 | -3.04106 | 33027 ft | 453 kts | 125° |
| 2026-05-04 04:09 | 53.31300 | -2.95718 | 33032 ft | 453 kts | 125° |
| 2026-05-04 04:09 | 53.27524 | -2.87270 | 33037 ft | 454 kts | 126° |
| 2026-05-04 04:10 | 53.23742 | -2.78830 | 33038 ft | 454 kts | 126° |
| 2026-05-04 04:10 | 53.19954 | -2.70410 | 33031 ft | 454 kts | 126° |
| 2026-05-04 04:11 | 53.16181 | -2.62054 | 33032 ft | 454 kts | 126° |
| 2026-05-04 04:11 | 53.12401 | -2.53625 | 33020 ft | 454 kts | 125° |
| 2026-05-04 04:12 | 53.08836 | -2.44979 | 33021 ft | 453 kts | 123° |
| 2026-05-04 04:12 | 53.05354 | -2.36265 | 33022 ft | 453 kts | 124° |
| 2026-05-04 04:13 | 53.01151 | -2.28643 | 33015 ft | 452 kts | 142° |
| 2026-05-04 04:13 | 52.95900 | -2.22950 | 33020 ft | 451 kts | 148° |
| 2026-05-04 04:14 | 52.90599 | -2.17421 | 33014 ft | 450 kts | 148° |
| 2026-05-04 04:14 | 52.85303 | -2.11879 | 33025 ft | 450 kts | 148° |
| 2026-05-04 04:15 | 52.80064 | -2.06406 | 33009 ft | 450 kts | 148° |
| 2026-05-04 04:15 | 52.74772 | -2.00910 | 33008 ft | 449 kts | 148° |
| 2026-05-04 04:16 | 52.69494 | -1.95447 | 33007 ft | 449 kts | 149° |
| 2026-05-04 04:16 | 52.66846 | -1.92708 | 32790 ft | 448 kts | 149° |
| 2026-05-04 04:16 | 52.64208 | -1.89980 | 32526 ft | 448 kts | 149° |
| 2026-05-04 04:17 | 52.61571 | -1.87258 | 32265 ft | 447 kts | 149° |
| 2026-05-04 04:17 | 52.58972 | -1.84583 | 31506 ft | 448 kts | 149° |
| 2026-05-04 04:17 | 52.56316 | -1.81858 | 30577 ft | 450 kts | 149° |
| 2026-05-04 04:17 | 52.53653 | -1.79130 | 29446 ft | 453 kts | 149° |
| 2026-05-04 04:18 | 52.50977 | -1.76395 | 28421 ft | 452 kts | 149° |
| 2026-05-04 04:18 | 52.48304 | -1.73664 | 27387 ft | 452 kts | 150° |
| 2026-05-04 04:18 | 52.45629 | -1.70934 | 26364 ft | 452 kts | 150° |
| 2026-05-04 04:18 | 52.42992 | -1.68246 | 25817 ft | 442 kts | 150° |
| 2026-05-04 04:19 | 52.40393 | -1.65599 | 25098 ft | 438 kts | 150° |
| 2026-05-04 04:19 | 52.37818 | -1.62983 | 24402 ft | 433 kts | 150° |
| 2026-05-04 04:19 | 52.35266 | -1.60395 | 23707 ft | 430 kts | 150° |
| 2026-05-04 04:19 | 52.32774 | -1.57869 | 22961 ft | 426 kts | 150° |
| 2026-05-04 04:20 | 52.30272 | -1.55333 | 22270 ft | 420 kts | 150° |
| 2026-05-04 04:20 | 52.27806 | -1.52830 | 21606 ft | 415 kts | 150° |
| 2026-05-04 04:20 | 52.25372 | -1.50363 | 20955 ft | 410 kts | 150° |
| 2026-05-04 04:20 | 52.22956 | -1.47919 | 20303 ft | 406 kts | 150° |
| 2026-05-04 04:21 | 52.20666 | -1.45232 | 19714 ft | 406 kts | 142° |
| 2026-05-04 04:21 | 52.18529 | -1.42225 | 19361 ft | 407 kts | 142° |
| 2026-05-04 04:21 | 52.16384 | -1.39220 | 18947 ft | 406 kts | 142° |
| 2026-05-04 04:21 | 52.14270 | -1.36277 | 18539 ft | 404 kts | 142° |